TimeAKST,TemperatureF,Dew PointF,Humidity,Sea Level PressureIn,VisibilityMPH,Wind Direction,Wind SpeedMPH,Gust SpeedMPH,PrecipitationIn,Events,Conditions,WindDirDegrees,DateUTC
12:48 AM,3.2,1.4,92,29.37,7.0,NNE,29.9,-,N/A,Snow,Light Snow Showers,30,2014-01-01 09:48:00
12:55 AM,3.9,1.9,91,29.38,8.0,NNE,28.8,-,N/A,,Partly Cloudy,30,2014-01-01 09:55:00
1:08 AM,5.0,3.2,92,29.39,10.0,NNE,24.2,-,N/A,Snow,Light Snow Showers,30,2014-01-01 10:08:00
1:55 AM,6.8,1.6,79,29.36,10.0,NE,28.8,-,N/A,Snow,Light Snow Showers,40,2014-01-01 10:55:00
3:08 AM,5.0,1.4,85,29.37,7.0,NE,24.2,39.1,N/A,Snow,Light Snow Showers,40,2014-01-01 12:08:00
3:55 AM,4.8,1.2,85,29.34,6.0,NNE,32.2,41.4,N/A,Snow,Light Snow Showers,30,2014-01-01 12:55:00
4:55 AM,5.9,1.9,84,29.36,6.0,NNE,28.8,41.4,N/A,Snow,Light Snow Showers,30,2014-01-01 13:55:00
5:55 AM,4.8,1.6,86,29.33,3.0,NNE,36.8,42.6,N/A,Snow,Light Snow Showers,30,2014-01-01 14:55:00
6:08 AM,5.0,1.4,85,29.33,2.5,NNE,38.0,42.6,N/A,Snow,Light Snow Showers,20,2014-01-01 15:08:00
6:48 AM,5.0,1.4,85,29.32,4.0,NNE,36.8,-,N/A,Snow,Light Snow,30,2014-01-01 15:48:00
6:55 AM,5.4,2.3,87,29.33,10.0,NNE,33.4,-,N/A,Snow,Light Snow,30,2014-01-01 15:55:00
7:28 AM,6.8,3.2,85,29.33,2.5,NNE,34.5,41.4,N/A,Snow,Light Snow Showers,30,2014-01-01 16:28:00
7:48 AM,6.8,3.2,85,29.34,10.0,NNE,32.2,40.3,N/A,,Mostly Cloudy,20,2014-01-01 16:48:00
7:55 AM,6.6,3.4,87,29.33,10.0,NNE,33.4,-,N/A,,Mostly Cloudy,20,2014-01-01 16:55:00
8:28 AM,6.8,3.2,85,29.33,5.0,NNE,33.4,-,N/A,Snow,Light Snow Showers,20,2014-01-01 17:28:00
8:55 AM,6.6,3.2,86,29.34,5.0,NNE,33.4,-,N/A,Snow,Light Snow Showers,30,2014-01-01 17:55:00
9:28 AM,6.8,3.2,85,29.34,10.0,NE,31.1,-,N/A,,Partly Cloudy,40,2014-01-01 18:28:00
9:55 AM,7.0,2.7,82,29.36,10.0,NNE,28.8,-,N/A,,Mostly Cloudy,30,2014-01-01 18:55:00
10:55 AM,8.4,4.1,83,29.34,10.0,NNE,32.2,-,N/A,,Overcast,30,2014-01-01 19:55:00
11:08 AM,8.6,5.0,85,29.33,10.0,NNE,34.5,-,N/A,Snow,Light Snow Showers,30,2014-01-01 20:08:00
11:55 AM,10.8,5.0,78,29.31,10.0,NNE,36.8,-,N/A,Snow,Light Snow Showers,30,2014-01-01 20:55:00
12:48 PM,10.4,5.0,79,29.31,10.0,NNE,40.3,44.9,N/A,,Mostly Cloudy,30,2014-01-01 21:48:00
12:55 PM,11.1,5.7,79,29.31,10.0,NNE,38.0,-,N/A,,Mostly Cloudy,30,2014-01-01 21:55:00
1:55 PM,11.8,9.3,90,29.31,10.0,NNE,36.8,-,N/A,,Overcast,30,2014-01-01 22:55:00
2:55 PM,12.6,9.5,88,29.34,10.0,NNE,35.7,-,N/A,,Overcast,20,2014-01-01 23:55:00
3:55 PM,13.5,9.7,85,29.35,10.0,NNE,33.4,-,N/A,,Mostly Cloudy,30,2014-01-02 00:55:00
4:55 PM,10.9,8.8,91,29.36,10.0,NNE,31.1,-,N/A,,Scattered Clouds,20,2014-01-02 01:55:00
5:55 PM,12.4,9.9,90,29.38,10.0,NNE,31.1,35.7,N/A,,Mostly Cloudy,20,2014-01-02 02:55:00
6:55 PM,10.4,7.7,89,29.40,10.0,NNE,28.8,-,N/A,Snow,Light Snow Showers,20,2014-01-02 03:55:00
7:28 PM,10.4,6.8,85,29.41,10.0,NNE,33.4,-,N/A,Snow,Light Snow Showers,20,2014-01-02 04:28:00
7:48 PM,8.6,6.8,92,29.42,10.0,NNE,28.8,-,N/A,Snow,Light Snow Showers,20,2014-01-02 04:48:00
7:55 PM,8.8,6.6,91,29.43,10.0,NNE,29.9,-,N/A,Snow,Light Snow Showers,20,2014-01-02 04:55:00
8:08 PM,8.6,6.8,92,29.43,9.0,NNE,28.8,-,N/A,Snow,Light Snow,20,2014-01-02 05:08:00
8:55 PM,7.9,6.1,92,29.43,5.0,NNE,31.1,-,N/A,Snow,Light Snow,20,2014-01-02 05:55:00
9:28 PM,6.8,5.0,92,29.44,7.0,NNE,32.2,-,N/A,Snow,Light Snow,20,2014-01-02 06:28:00
9:48 PM,6.8,5.0,92,29.44,8.0,NNE,32.2,-,N/A,Snow,Light Snow,20,2014-01-02 06:48:00
9:55 PM,6.8,5.0,92,29.45,6.0,NNE,31.1,-,N/A,Snow,Light Snow,20,2014-01-02 06:55:00
10:28 PM,6.8,5.0,92,29.45,10.0,NNE,32.2,-,N/A,Snow,Light Snow,20,2014-01-02 07:28:00
10:55 PM,7.0,5.0,92,29.47,10.0,NNE,28.8,-,N/A,Snow,Light Snow,20,2014-01-02 07:55:00
11:28 PM,6.8,5.0,92,29.49,10.0,NNE,29.9,-,N/A,Snow,Light Snow,20,2014-01-02 08:28:00
11:55 PM,7.0,5.4,93,29.50,10.0,NNE,28.8,-,N/A,Snow,Light Snow,20,2014-01-02 08:55:00